Time;durP1;ratioP1;P1;durP2;ratioP2;P2;SDS_P1;SDS_P2;PMS_P1;PMS_P2;Temp;Humidity;BMP_temperature;BMP_pressure;BME280_temperature;BME280_humidity;BME280_pressure;Samples;Min_cycle;Max_cycle;Signal;HPM_P1;HPM_P2
2022/04/08 00:00:07;;;;;;;3.22;1.23;;;7.30;99.90;;;;;;5073578;28;20072;-75
2022/04/08 00:02:33;;;;;;;5.07;1.27;;;7.30;99.90;;;;;;5084678;28;20472;-75
2022/04/08 00:05:00;;;;;;;2.05;0.90;;;7.30;99.90;;;;;;5091472;28;20075;-75
2022/04/08 00:07:27;;;;;;;1.47;0.93;;;7.20;99.90;;;;;;5091935;28;20040;-76
2022/04/08 00:09:53;;;;;;;2.75;1.00;;;7.20;99.90;;;;;;5084775;28;20123;-75
2022/04/08 00:12:20;;;;;;;0.80;0.80;;;7.10;99.90;;;;;;5073475;28;20082;-75
2022/04/08 00:14:48;;;;;;;2.87;1.57;;;7.10;99.90;;;;;;5074943;28;20080;-74
2022/04/08 00:17:15;;;;;;;1.50;1.07;;;7.00;99.90;;;;;;5084551;28;20060;-75
2022/04/08 00:19:41;;;;;;;1.20;1.10;;;6.90;99.90;;;;;;5093664;28;20226;-75
2022/04/08 00:22:08;;;;;;;1.75;1.25;;;6.90;99.90;;;;;;5093772;28;20075;-75
2022/04/08 00:24:34;;;;;;;4.30;1.33;;;6.80;99.90;;;;;;5097457;28;20087;-75
2022/04/08 00:27:01;;;;;;;1.33;1.07;;;6.80;99.90;;;;;;5095758;28;20098;-75
2022/04/08 00:29:27;;;;;;;1.53;1.43;;;6.70;99.90;;;;;;5084977;28;20420;-75
2022/04/08 00:31:57;;;;;;;1.27;1.17;;;6.70;99.90;;;;;;5097221;28;20082;-74
2022/04/08 00:34:24;;;;;;;1.40;1.30;;;6.70;99.90;;;;;;5097439;28;20079;-74
2022/04/08 00:36:51;;;;;;;1.57;1.13;;;6.70;99.90;;;;;;5084367;28;20450;-74
2022/04/08 00:39:18;;;;;;;2.33;1.43;;;6.70;99.90;;;;;;5089351;28;20044;-74
2022/04/08 00:41:44;;;;;;;3.17;1.50;;;6.70;99.90;;;;;;5094581;28;20071;-74
2022/04/08 00:44:11;;;;;;;1.60;1.50;;;6.60;99.90;;;;;;5081032;28;20068;-74
2022/04/08 00:46:38;;;;;;;1.67;1.57;;;6.60;99.90;;;;;;5076974;28;20072;-74
2022/04/08 00:49:06;;;;;;;1.23;1.23;;;6.50;99.90;;;;;;5077438;28;20059;-74
2022/04/08 00:51:33;;;;;;;2.17;1.30;;;6.50;99.90;;;;;;5097182;28;20118;-74
2022/04/08 00:54:00;;;;;;;2.87;2.33;;;6.40;99.90;;;;;;5096480;28;20130;-76
2022/04/08 00:56:29;;;;;;;4.53;2.10;;;6.40;99.90;;;;;;5095261;28;20529;-75
2022/04/08 00:58:56;;;;;;;3.27;1.80;;;6.40;99.90;;;;;;5097225;28;20079;-75
2022/04/08 01:01:24;;;;;;;1.33;1.30;;;6.40;99.90;;;;;;5094832;28;20498;-74
2022/04/08 01:03:52;;;;;;;1.90;1.30;;;6.50;99.90;;;;;;5079454;28;20053;-74
2022/04/08 01:06:20;;;;;;;1.53;1.43;;;6.60;99.90;;;;;;5077534;28;20048;-75
2022/04/08 01:08:49;;;;;;;2.27;1.63;;;6.70;99.90;;;;;;5076076;28;20072;-75
2022/04/08 01:11:15;;;;;;;2.70;1.37;;;6.70;99.90;;;;;;5081857;28;20040;-74
2022/04/08 01:13:42;;;;;;;0.90;0.90;;;6.80;99.90;;;;;;5079549;28;20494;-74
2022/04/08 01:16:09;;;;;;;2.73;1.03;;;6.80;99.90;;;;;;5077379;28;20076;-75
2022/04/08 01:18:36;;;;;;;2.60;0.90;;;6.80;99.90;;;;;;5076415;28;20076;-75
2022/04/08 01:21:04;;;;;;;1.17;0.87;;;6.90;99.90;;;;;;5077387;28;20119;-75
2022/04/08 01:23:34;;;;;;;1.23;0.90;;;6.80;99.90;;;;;;5076298;28;20048;-75
2022/04/08 01:26:04;;;;;;;0.60;0.60;;;6.90;99.90;;;;;;5077120;28;20049;-75
2022/04/08 01:28:30;;;;;;;3.03;0.80;;;6.90;99.90;;;;;;5076008;28;20110;-75
2022/04/08 01:30:57;;;;;;;2.60;1.23;;;6.90;99.90;;;;;;5075636;28;20083;-75
2022/04/08 01:36:46;;;;;;;0.80;0.55;;;7.00;99.90;;;;;;5077185;28;20035;-75
2022/04/08 01:39:12;;;;;;;1.13;1.13;;;7.00;99.90;;;;;;5075802;28;20470;-75
2022/04/08 01:41:40;;;;;;;0.80;0.80;;;7.00;99.90;;;;;;5085401;28;20139;-74
2022/04/08 01:44:07;;;;;;;0.77;0.53;;;7.00;99.90;;;;;;5081398;28;20123;-75
2022/04/08 01:46:34;;;;;;;0.53;0.50;;;7.00;99.90;;;;;;5075909;28;20136;-74
2022/04/08 01:49:00;;;;;;;1.50;0.70;;;7.00;99.90;;;;;;5076818;28;20135;-74
2022/04/08 01:51:27;;;;;;;5.77;0.70;;;7.00;99.90;;;;;;5076893;28;20083;-74
2022/04/08 01:53:53;;;;;;;2.10;1.13;;;7.00;99.90;;;;;;5093141;28;20080;-74
2022/04/08 01:56:20;;;;;;;0.50;0.50;;;7.00;99.90;;;;;;5095470;28;20079;-74
2022/04/08 01:58:48;;;;;;;1.10;0.87;;;7.00;99.90;;;;;;5093602;28;20391;-74
2022/04/08 02:01:15;;;;;;;0.83;0.70;;;7.00;99.90;;;;;;5095838;28;20079;-74
2022/04/08 02:03:41;;;;;;;1.97;0.60;;;7.00;99.90;;;;;;5093527;28;20075;-74
2022/04/08 02:06:08;;;;;;;1.47;0.70;;;6.90;99.90;;;;;;5089106;28;20075;-74
2022/04/08 02:08:34;;;;;;;0.60;0.60;;;6.90;99.90;;;;;;5084657;28;20044;-75
2022/04/08 02:11:01;;;;;;;1.00;0.90;;;6.90;99.90;;;;;;5087450;28;20098;-73
2022/04/08 02:13:27;;;;;;;1.00;1.00;;;6.90;99.90;;;;;;5086094;28;20052;-75
2022/04/08 02:15:55;;;;;;;0.52;0.52;;;6.90;99.90;;;;;;5095588;28;20131;-75
2022/04/08 02:18:22;;;;;;;0.60;0.60;;;6.90;99.90;;;;;;5077403;28;20076;-72
2022/04/08 02:20:50;;;;;;;0.30;0.30;;;6.90;99.90;;;;;;5077231;28;20083;-73
2022/04/08 02:23:17;;;;;;;0.50;0.50;;;6.90;99.90;;;;;;5075138;28;20052;-74
2022/04/08 02:25:45;;;;;;;0.87;0.87;;;6.90;99.90;;;;;;5076133;28;20182;-75
2022/04/08 02:28:12;;;;;;;1.50;0.50;;;6.90;99.90;;;;;;5076083;28;20048;-77
2022/04/08 02:30:39;;;;;;;1.60;0.53;;;6.90;99.90;;;;;;5074770;28;20493;-77
2022/04/08 02:33:07;;;;;;;4.80;0.83;;;6.90;99.90;;;;;;5074876;28;20110;-76
2022/04/08 02:35:33;;;;;;;1.33;0.50;;;6.90;99.90;;;;;;5084762;28;20083;-74
2022/04/08 02:38:00;;;;;;;2.00;0.87;;;6.90;99.90;;;;;;5085759;28;20132;-73
2022/04/08 02:40:27;;;;;;;3.80;0.80;;;6.90;99.90;;;;;;5075009;28;20076;-73
2022/04/08 02:42:53;;;;;;;0.30;0.30;;;6.90;99.90;;;;;;5074743;28;20084;-73
2022/04/08 02:45:20;;;;;;;3.80;0.70;;;6.90;99.90;;;;;;5074243;28;20132;-73
2022/04/08 02:47:46;;;;;;;0.50;0.50;;;6.90;99.90;;;;;;5074844;28;20487;-73
2022/04/08 02:50:14;;;;;;;1.47;0.63;;;6.90;99.90;;;;;;5074151;28;20492;-73
2022/04/08 02:52:41;;;;;;;0.75;0.40;;;6.90;99.90;;;;;;5074564;28;20136;-74
2022/04/08 02:55:08;;;;;;;2.70;0.70;;;6.90;99.90;;;;;;5074090;28;20525;-73
2022/04/08 02:57:44;;;;;;;0.77;0.77;;;6.90;99.90;;;;;;5074129;28;20466;-73
2022/04/08 03:00:12;;;;;;;2.80;0.57;;;6.90;99.90;;;;;;5074502;28;20052;-73
2022/04/08 03:02:39;;;;;;;0.90;0.55;;;6.90;99.90;;;;;;5074398;28;20088;-73
2022/04/08 03:05:07;;;;;;;0.87;0.70;;;7.00;99.90;;;;;;5074499;28;20131;-73
2022/04/08 03:07:35;;;;;;;1.47;0.50;;;7.00;99.90;;;;;;5074442;28;20048;-73
2022/04/08 03:10:01;;;;;;;0.40;0.40;;;7.00;99.90;;;;;;5074435;28;20052;-74
2022/04/08 03:12:28;;;;;;;1.90;0.70;;;7.00;99.90;;;;;;5074032;28;20455;-73
2022/04/08 03:14:55;;;;;;;1.57;0.70;;;7.00;99.90;;;;;;5074250;28;20135;-73
2022/04/08 03:17:21;;;;;;;0.53;0.53;;;7.00;99.90;;;;;;5075029;28;20049;-74
2022/04/08 03:19:48;;;;;;;2.13;0.87;;;7.00;99.90;;;;;;5074446;28;20123;-73
2022/04/08 03:22:14;;;;;;;3.00;0.70;;;7.00;99.90;;;;;;5074076;28;20049;-73
2022/04/08 03:24:42;;;;;;;2.00;0.83;;;6.90;99.90;;;;;;5074001;28;20094;-74
2022/04/08 03:27:09;;;;;;;1.77;0.60;;;6.90;99.90;;;;;;5073671;28;20556;-74
2022/04/08 03:29:35;;;;;;;2.58;0.80;;;6.90;99.90;;;;;;5073712;28;20087;-74
2022/04/08 03:32:02;;;;;;;2.03;0.80;;;6.90;99.90;;;;;;5073950;28;20131;-73
2022/04/08 03:34:29;;;;;;;1.00;0.67;;;6.80;99.90;;;;;;5073796;28;20060;-73
2022/04/08 03:36:55;;;;;;;0.73;0.70;;;6.80;99.90;;;;;;5073730;28;20473;-74
2022/04/08 03:39:22;;;;;;;4.37;0.80;;;6.80;99.90;;;;;;5073943;28;20130;-74
2022/04/08 03:41:50;;;;;;;1.23;1.07;;;6.90;99.90;;;;;;5074077;28;20414;-74
2022/04/08 03:44:17;;;;;;;1.27;0.80;;;6.90;99.90;;;;;;5074019;28;20084;-73
2022/04/08 03:46:46;;;;;;;1.07;0.60;;;7.00;99.90;;;;;;5073781;28;20087;-74
2022/04/08 03:49:14;;;;;;;0.40;0.40;;;7.00;99.90;;;;;;5073234;28;20480;-73
2022/04/08 03:51:40;;;;;;;0.53;0.53;;;7.00;99.90;;;;;;5073398;28;20503;-73
2022/04/08 03:54:07;;;;;;;1.37;0.80;;;7.00;99.90;;;;;;5073742;28;20075;-74
2022/04/08 03:56:34;;;;;;;0.50;0.50;;;7.00;99.90;;;;;;5073370;28;20067;-73
2022/04/08 03:59:02;;;;;;;1.27;1.17;;;7.00;99.90;;;;;;5072733;28;20135;-74
2022/04/08 04:01:29;;;;;;;2.80;0.90;;;6.80;99.90;;;;;;5073689;28;20136;-74
2022/04/08 04:03:55;;;;;;;1.33;0.93;;;6.70;99.90;;;;;;5073621;28;20131;-74
2022/04/08 04:06:22;;;;;;;2.27;1.23;;;6.60;99.90;;;;;;5073563;28;20076;-73
2022/04/08 04:08:48;;;;;;;0.73;0.73;;;6.50;99.90;;;;;;5073326;28;20078;-73
2022/04/08 04:11:16;;;;;;;1.00;1.00;;;6.30;99.90;;;;;;5073406;28;20076;-73
2022/04/08 04:13:42;;;;;;;3.30;1.10;;;6.30;99.90;;;;;;5073447;28;20059;-74
2022/04/08 04:16:11;;;;;;;1.07;1.03;;;6.30;99.90;;;;;;5073324;28;20529;-74
2022/04/08 04:18:37;;;;;;;0.80;0.80;;;6.30;99.90;;;;;;5073335;28;20091;-74
2022/04/08 04:21:04;;;;;;;3.23;0.80;;;6.30;99.90;;;;;;5073372;28;20113;-73
2022/04/08 04:23:33;;;;;;;1.80;0.77;;;6.30;99.90;;;;;;5073430;28;20071;-73
2022/04/08 04:26:00;;;;;;;0.80;0.80;;;6.30;99.90;;;;;;5073537;28;20048;-73
2022/04/08 04:28:29;;;;;;;0.70;0.70;;;6.30;99.90;;;;;;5073196;28;20563;-73
2022/04/08 04:30:59;;;;;;;1.50;0.40;;;6.30;99.90;;;;;;5072933;28;20044;-73
2022/04/08 04:33:27;;;;;;;0.57;0.57;;;6.30;99.90;;;;;;5073291;28;20098;-72
2022/04/08 04:35:54;;;;;;;0.60;0.60;;;6.40;99.90;;;;;;5073581;28;20117;-73
2022/04/08 04:38:21;;;;;;;0.87;0.60;;;6.40;99.90;;;;;;5073256;28;20136;-72
2022/04/08 04:40:48;;;;;;;0.90;0.70;;;6.40;99.90;;;;;;5073094;28;20083;-72
2022/04/08 04:43:14;;;;;;;0.43;0.43;;;6.30;99.90;;;;;;5073157;28;20079;-72
2022/04/08 04:45:41;;;;;;;1.53;0.50;;;6.30;99.90;;;;;;5073103;28;20052;-72
2022/04/08 04:48:10;;;;;;;1.87;0.73;;;6.30;99.90;;;;;;5072682;28;20502;-72
2022/04/08 04:50:38;;;;;;;0.73;0.30;;;6.30;99.90;;;;;;5073005;28;20052;-73
2022/04/08 04:53:04;;;;;;;1.40;0.80;;;6.30;99.90;;;;;;5073021;28;20135;-73
2022/04/08 04:55:31;;;;;;;1.10;0.83;;;6.30;99.90;;;;;;5073290;28;20128;-73
2022/04/08 04:57:58;;;;;;;0.30;0.30;;;6.30;99.90;;;;;;5072954;28;20094;-73
2022/04/08 05:00:25;;;;;;;1.40;0.57;;;6.20;99.90;;;;;;5072601;28;20501;-73
2022/04/08 05:02:52;;;;;;;0.60;0.60;;;6.20;99.90;;;;;;5072761;28;20067;-74
2022/04/08 05:05:19;;;;;;;0.37;0.33;;;6.20;99.90;;;;;;5072823;28;20131;-73
2022/04/08 05:07:46;;;;;;;0.30;0.30;;;6.10;99.90;;;;;;5072437;28;20489;-74
2022/04/08 05:10:13;;;;;;;0.53;0.50;;;6.10;99.90;;;;;;5075682;28;20076;-73
2022/04/08 05:12:39;;;;;;;0.37;0.30;;;6.10;99.90;;;;;;5076522;28;20080;-73
2022/04/08 05:15:09;;;;;;;0.40;0.40;;;6.10;99.90;;;;;;5076390;28;20048;-73
2022/04/08 05:17:36;;;;;;;0.33;0.30;;;6.10;99.90;;;;;;5076324;28;20044;-73
2022/04/08 05:20:03;;;;;;;1.27;0.60;;;6.00;99.90;;;;;;5076317;28;20185;-74
2022/04/08 05:22:30;;;;;;;0.43;0.43;;;6.00;99.90;;;;;;5076354;28;20411;-73
2022/04/08 05:24:59;;;;;;;1.47;0.60;;;5.90;99.90;;;;;;5076151;28;20517;-73
2022/04/08 05:27:26;;;;;;;0.70;0.70;;;5.90;99.90;;;;;;5076185;28;20056;-73
2022/04/08 05:29:53;;;;;;;0.33;0.33;;;5.90;99.90;;;;;;5075772;28;20106;-73
2022/04/08 05:32:19;;;;;;;0.57;0.57;;;5.90;99.90;;;;;;5076031;28;20127;-73
2022/04/08 05:34:46;;;;;;;1.43;0.70;;;5.90;99.90;;;;;;5075786;28;20141;-73
2022/04/08 05:37:13;;;;;;;0.97;0.60;;;5.90;99.90;;;;;;5075587;28;20525;-74
2022/04/08 05:39:39;;;;;;;0.70;0.70;;;6.00;99.90;;;;;;5075845;28;20055;-73
2022/04/08 05:42:08;;;;;;;1.27;0.57;;;6.00;99.90;;;;;;5075697;28;20490;-73
2022/04/08 05:44:34;;;;;;;2.03;1.70;;;6.00;99.90;;;;;;5075874;28;20056;-73
2022/04/08 05:47:01;;;;;;;2.47;0.93;;;6.00;99.90;;;;;;5076063;28;20461;-73
2022/04/08 05:49:27;;;;;;;2.30;0.43;;;6.00;99.90;;;;;;5075302;28;20555;-73
2022/04/08 05:51:54;;;;;;;1.30;1.00;;;6.00;99.90;;;;;;5075732;28;20136;-73
2022/04/08 05:54:20;;;;;;;0.70;0.70;;;6.10;99.90;;;;;;5075688;28;20049;-74
2022/04/08 05:56:47;;;;;;;3.80;2.53;;;6.10;99.90;;;;;;5075401;28;20471;-72
2022/04/08 05:59:15;;;;;;;3.90;1.07;;;6.10;99.90;;;;;;5075471;28;20088;-72
2022/04/08 06:01:42;;;;;;;0.50;0.50;;;6.10;99.90;;;;;;5075425;28;20451;-72
2022/04/08 06:04:08;;;;;;;2.20;0.80;;;6.20;99.90;;;;;;5075234;28;20510;-73
2022/04/08 06:06:38;;;;;;;2.23;0.77;;;6.20;99.90;;;;;;5075417;28;20084;-72
2022/04/08 06:09:05;;;;;;;0.70;0.70;;;6.20;99.90;;;;;;5075873;28;20049;-73
2022/04/08 06:11:31;;;;;;;0.60;0.60;;;6.10;99.90;;;;;;5075214;28;20457;-73
2022/04/08 06:13:58;;;;;;;3.00;1.40;;;6.10;99.90;;;;;;5075248;28;20131;-73
2022/04/08 06:16:26;;;;;;;1.50;1.07;;;6.10;99.90;;;;;;5075441;28;20056;-73
2022/04/08 06:18:52;;;;;;;4.47;0.80;;;6.00;99.90;;;;;;5075168;28;20113;-72
2022/04/08 06:21:19;;;;;;;1.80;0.80;;;6.00;99.90;;;;;;5074276;28;20080;-73
2022/04/08 06:23:46;;;;;;;0.70;0.70;;;6.00;99.90;;;;;;5075219;28;20131;-74
2022/04/08 06:26:15;;;;;;;2.97;0.57;;;6.10;99.90;;;;;;5075132;28;20052;-74
2022/04/08 06:28:42;;;;;;;1.43;0.97;;;6.10;99.90;;;;;;5074992;28;20051;-74
2022/04/08 06:31:10;;;;;;;0.60;0.60;;;6.20;99.90;;;;;;5074404;28;20090;-74
2022/04/08 06:33:38;;;;;;;4.83;1.53;;;6.30;99.90;;;;;;5074977;28;20059;-74
2022/04/08 06:36:05;;;;;;;0.83;0.50;;;6.40;99.90;;;;;;5074702;28;20056;-73
2022/04/08 06:38:32;;;;;;;0.50;0.50;;;6.40;99.90;;;;;;5074760;28;20135;-73
2022/04/08 06:40:58;;;;;;;2.17;0.60;;;6.40;99.90;;;;;;5074744;28;20079;-73
2022/04/08 06:43:25;;;;;;;4.20;0.70;;;6.40;99.90;;;;;;5074491;28;20510;-73
2022/04/08 06:45:51;;;;;;;1.23;0.60;;;6.50;99.90;;;;;;5074287;28;20530;-73
2022/04/08 06:48:18;;;;;;;0.73;0.73;;;6.50;99.90;;;;;;5074504;28;20131;-74
2022/04/08 06:50:45;;;;;;;0.50;0.50;;;6.50;99.90;;;;;;5074377;28;20044;-73
2022/04/08 06:53:12;;;;;;;0.60;0.60;;;6.60;99.90;;;;;;5074511;28;20178;-73
2022/04/08 06:55:39;;;;;;;1.77;1.50;;;6.70;99.90;;;;;;5074400;28;20086;-73
2022/04/08 06:58:06;;;;;;;5.30;2.23;;;6.80;99.90;;;;;;5074396;28;20091;-73
2022/04/08 07:00:33;;;;;;;0.73;0.67;;;7.00;99.90;;;;;;5074369;28;20045;-73
2022/04/08 07:02:59;;;;;;;0.57;0.57;;;7.10;99.90;;;;;;5074303;28;20076;-72
2022/04/08 07:05:26;;;;;;;1.13;0.57;;;7.00;99.90;;;;;;5074203;28;20140;-74
2022/04/08 07:07:54;;;;;;;0.43;0.43;;;7.00;99.90;;;;;;5074182;28;20052;-73
2022/04/08 07:10:21;;;;;;;3.23;0.73;;;6.70;99.90;;;;;;5074078;28;20145;-74
2022/04/08 07:12:47;;;;;;;0.30;0.30;;;5.90;99.90;;;;;;5074179;28;20076;-73
2022/04/08 07:15:14;;;;;;;0.63;0.50;;;5.60;99.90;;;;;;5074066;28;20140;-73
2022/04/08 07:17:40;;;;;;;0.30;0.30;;;5.40;99.90;;;;;;5073972;28;20080;-73
2022/04/08 07:20:08;;;;;;;0.20;0.20;;;5.40;99.90;;;;;;5073683;28;20498;-74
2022/04/08 07:22:34;;;;;;;1.17;0.80;;;5.20;99.90;;;;;;5073585;28;20108;-73
2022/04/08 07:25:02;;;;;;;1.40;0.80;;;4.80;99.90;;;;;;5073869;28;20123;-73
2022/04/08 07:27:29;;;;;;;1.83;0.50;;;4.60;99.90;;;;;;5074590;28;20079;-74
2022/04/08 07:29:56;;;;;;;1.00;0.50;;;4.40;99.90;;;;;;5073639;28;20083;-73
2022/04/08 07:32:22;;;;;;;0.80;0.60;;;4.40;99.90;;;;;;5073663;28;20083;-73
2022/04/08 07:34:50;;;;;;;1.90;0.57;;;4.30;99.90;;;;;;5073606;28;20087;-74
2022/04/08 07:37:27;;;;;;;0.60;0.60;;;4.30;99.90;;;;;;5073805;28;20044;-73
2022/04/08 07:39:53;;;;;;;0.50;0.40;;;4.30;99.90;;;;;;5074508;28;20048;-72
2022/04/08 07:42:21;;;;;;;1.53;0.60;;;4.30;99.90;;;;;;5073763;28;20102;-73
2022/04/08 07:44:48;;;;;;;0.30;0.30;;;4.30;99.90;;;;;;5073827;28;20079;-75
2022/04/08 07:47:15;;;;;;;0.80;0.57;;;4.50;99.90;;;;;;5073693;28;20113;-73
2022/04/08 07:49:42;;;;;;;1.83;0.50;;;4.80;99.90;;;;;;5073706;28;20056;-75
2022/04/08 07:52:08;;;;;;;5.20;0.40;;;5.00;99.90;;;;;;5073409;28;20131;-75
2022/04/08 07:54:35;;;;;;;5.07;0.97;;;5.20;99.90;;;;;;5073772;28;20091;-73
2022/04/08 07:57:01;;;;;;;1.67;1.13;;;5.50;99.90;;;;;;5074505;28;20072;-73
2022/04/08 07:59:29;;;;;;;0.80;0.70;;;5.70;99.90;;;;;;5076067;28;20102;-73
2022/04/08 08:01:56;;;;;;;1.57;0.90;;;5.80;99.90;;;;;;5080176;28;20048;-74
2022/04/08 08:04:22;;;;;;;0.30;0.30;;;5.90;99.90;;;;;;5089483;28;20098;-74
2022/04/08 08:06:49;;;;;;;4.13;0.90;;;6.00;99.90;;;;;;5088903;28;20053;-74
2022/04/08 08:09:15;;;;;;;5.20;1.03;;;6.10;99.90;;;;;;5086987;28;20064;-74
2022/04/08 08:11:42;;;;;;;0.77;0.77;;;6.20;99.90;;;;;;5087860;28;20127;-74
2022/04/08 08:14:09;;;;;;;1.90;0.77;;;6.70;99.90;;;;;;5074122;28;20088;-74
2022/04/08 08:16:37;;;;;;;5.53;1.40;;;7.50;99.90;;;;;;5077862;28;20057;-74
2022/04/08 08:19:03;;;;;;;3.55;0.63;;;8.60;99.90;;;;;;5076807;28;20048;-74
2022/04/08 08:21:30;;;;;;;1.77;0.73;;;8.90;99.90;;;;;;5078558;28;20052;-73
2022/04/08 08:23:56;;;;;;;2.53;1.15;;;8.90;99.90;;;;;;5080330;28;20110;-73
2022/04/08 08:26:23;;;;;;;2.58;0.65;;;9.60;99.90;;;;;;5080557;28;20079;-74
2022/04/08 08:28:50;;;;;;;1.10;0.63;;;10.60;99.90;;;;;;5076615;28;20110;-74
2022/04/08 08:31:16;;;;;;;3.70;0.75;;;10.90;99.90;;;;;;5075964;28;20080;-73
2022/04/08 08:33:44;;;;;;;0.75;0.75;;;11.60;99.90;;;;;;5073169;28;20052;-74
2022/04/08 08:36:11;;;;;;;0.40;0.40;;;12.40;99.90;;;;;;5073566;28;20052;-73
2022/04/08 08:38:38;;;;;;;1.60;0.57;;;12.50;99.90;;;;;;5073245;28;20207;-75
2022/04/08 08:41:05;;;;;;;2.85;0.75;;;11.60;99.90;;;;;;5073171;28;20087;-73
2022/04/08 08:43:32;;;;;;;2.58;1.08;;;11.90;99.90;;;;;;5073247;28;20565;-73
2022/04/08 08:46:01;;;;;;;1.92;1.05;;;12.20;99.90;;;;;;5076988;28;20557;-74
2022/04/08 08:48:30;;;;;;;4.18;1.23;;;12.70;99.90;;;;;;5076830;28;20106;-73
2022/04/08 08:51:01;;;;;;;2.47;0.70;;;13.10;99.90;;;;;;5076718;28;20044;-73
2022/04/08 08:53:30;;;;;;;5.78;0.98;;;13.40;97.60;;;;;;5076656;28;20462;-74
2022/04/08 08:55:57;;;;;;;3.35;0.80;;;12.70;96.70;;;;;;5076629;28;20139;-72
2022/04/08 08:58:24;;;;;;;4.90;0.70;;;11.50;97.20;;;;;;5076611;28;20126;-73
2022/04/08 09:00:51;;;;;;;4.13;0.93;;;11.50;95.10;;;;;;5076636;28;20079;-73
2022/04/08 09:03:17;;;;;;;2.67;1.10;;;10.50;97.40;;;;;;5076601;28;20127;-74
2022/04/08 09:05:45;;;;;;;5.43;1.35;;;10.20;98.80;;;;;;5076537;28;20131;-74
2022/04/08 09:08:14;;;;;;;3.92;0.93;;;10.00;99.90;;;;;;5076277;28;20076;-73
2022/04/08 09:10:44;;;;;;;2.15;0.65;;;10.00;99.90;;;;;;5076533;28;20087;-73
2022/04/08 09:13:11;;;;;;;3.90;0.80;;;10.50;98.00;;;;;;5076335;28;20044;-73
2022/04/08 09:15:40;;;;;;;6.85;1.38;;;10.50;98.60;;;;;;5075969;28;20494;-74
2022/04/08 09:18:09;;;;;;;6.53;1.02;;;10.30;97.90;;;;;;5076055;28;20064;-74
2022/04/08 09:20:40;;;;;;;3.35;1.17;;;10.10;99.90;;;;;;5076017;28;20080;-74
2022/04/08 09:23:07;;;;;;;0.43;0.43;;;10.10;99.90;;;;;;5076181;28;20044;-75
2022/04/08 09:25:35;;;;;;;4.70;0.63;;;10.80;99.10;;;;;;5075995;28;20318;-72
2022/04/08 09:28:07;;;;;;;2.15;0.90;;;11.60;94.30;;;;;;5076114;28;20052;-75
2022/04/08 09:30:33;;;;;;;1.65;0.40;;;11.60;90.30;;;;;;5075686;28;20037;-74
2022/04/08 09:33:10;;;;;;;1.08;0.65;;;11.10;93.50;;;;;;5075906;28;20048;-72
2022/04/08 09:35:40;;;;;;;3.45;0.60;;;10.90;94.70;;;;;;5075911;28;20127;-73
2022/04/08 09:38:06;;;;;;;0.90;0.80;;;11.00;93.60;;;;;;5075813;28;20060;-74
2022/04/08 09:40:39;;;;;;;1.80;0.50;;;9.80;95.70;;;;;;5075645;28;20565;-75
2022/04/08 09:43:07;;;;;;;4.25;1.08;;;10.10;98.90;;;;;;5075895;28;20070;-74
2022/04/08 09:45:37;;;;;;;3.50;0.85;;;10.10;97.10;;;;;;5075814;28;20131;-74
2022/04/08 09:48:05;;;;;;;1.38;0.77;;;10.00;98.60;;;;;;5075471;28;20495;-73
2022/04/08 09:50:32;;;;;;;2.85;0.63;;;10.30;96.50;;;;;;5075680;28;20088;-72
2022/04/08 09:52:59;;;;;;;1.48;0.60;;;10.50;96.20;;;;;;5075496;28;20080;-73
2022/04/08 09:55:26;;;;;;;2.30;0.77;;;11.00;95.00;;;;;;5074018;28;20109;-73
2022/04/08 09:57:57;;;;;;;5.43;1.15;;;12.20;92.30;;;;;;5075634;28;20095;-73
2022/04/08 10:00:25;;;;;;;1.60;0.50;;;12.20;88.60;;;;;;5075602;28;20083;-74
2022/04/08 10:02:54;;;;;;;3.38;0.77;;;11.60;90.10;;;;;;5075738;28;20076;-73
2022/04/08 10:05:22;;;;;;;3.33;1.35;;;11.10;90.00;;;;;;5075601;28;20497;-73
2022/04/08 10:07:52;;;;;;;1.20;0.47;;;12.00;90.80;;;;;;5075766;28;20501;-73
2022/04/08 10:10:23;;;;;;;4.50;0.60;;;12.00;86.60;;;;;;5076553;28;20102;-74
2022/04/08 10:13:17;;;;;;;4.22;0.68;;;11.10;84.60;;;;;;5076344;28;20052;-73
2022/04/08 10:15:54;;;;;;;2.47;1.13;;;10.70;91.00;;;;;;5075464;28;20102;-74
2022/04/08 10:18:21;;;;;;;1.95;0.50;;;10.70;91.20;;;;;;5075368;28;20084;-74
2022/04/08 10:20:47;;;;;;;4.32;0.80;;;10.50;91.50;;;;;;5075260;28;20573;-73
2022/04/08 10:23:16;;;;;;;0.70;0.60;;;10.60;91.30;;;;;;5075082;28;20083;-73
2022/04/08 10:25:43;;;;;;;2.63;0.90;;;10.80;90.00;;;;;;5075275;28;20055;-73
2022/04/08 10:28:12;;;;;;;2.40;0.73;;;11.50;87.50;;;;;;5075240;28;20173;-73
2022/04/08 10:30:45;;;;;;;3.58;1.35;;;12.70;83.70;;;;;;5075018;28;20072;-73
2022/04/08 10:33:12;;;;;;;3.30;0.98;;;13.70;83.80;;;;;;5075029;28;20090;-73
2022/04/08 10:35:39;;;;;;;1.90;0.50;;;14.40;76.70;;;;;;5074923;28;20097;-74
2022/04/08 10:38:07;;;;;;;3.17;1.20;;;13.80;79.40;;;;;;5075025;28;20084;-73
2022/04/08 10:40:35;;;;;;;1.17;0.98;;;12.10;80.00;;;;;;5074803;28;20473;-73
2022/04/08 10:43:04;;;;;;;6.53;1.17;;;10.90;85.80;;;;;;5074835;28;20049;-74
2022/04/08 10:45:32;;;;;;;5.65;1.73;;;11.10;89.60;;;;;;5074804;28;20171;-73
2022/04/08 10:48:01;;;;;;;0.85;0.70;;;11.30;87.50;;;;;;5074556;28;20558;-73
2022/04/08 10:50:29;;;;;;;1.10;0.70;;;11.80;83.70;;;;;;5074689;28;20139;-72
2022/04/08 10:53:07;;;;;;;0.75;0.43;;;12.80;80.20;;;;;;5074511;28;20050;-73
2022/04/08 10:55:46;;;;;;;0.98;0.65;;;13.50;79.00;;;;;;5074486;28;20414;-72
2022/04/08 10:58:13;;;;;;;2.83;1.00;;;14.40;73.20;;;;;;5074348;28;20494;-73
2022/04/08 11:00:41;;;;;;;1.52;0.60;;;14.50;71.00;;;;;;5074453;28;20048;-72
2022/04/08 11:03:10;;;;;;;0.70;0.70;;;14.00;67.70;;;;;;5074086;28;20558;-73
2022/04/08 11:05:38;;;;;;;1.17;0.40;;;13.80;69.40;;;;;;5074408;28;20045;-73
2022/04/08 11:08:05;;;;;;;1.67;0.50;;;13.70;66.80;;;;;;5073760;28;20486;-73
2022/04/08 11:10:32;;;;;;;0.70;0.70;;;12.20;68.40;;;;;;5074253;28;20103;-73
2022/04/08 11:13:00;;;;;;;2.00;0.63;;;11.10;74.20;;;;;;5074158;28;20055;-74
2022/04/08 11:15:30;;;;;;;0.82;0.60;;;10.90;73.30;;;;;;5074271;28;20052;-74
2022/04/08 11:17:59;;;;;;;1.27;0.60;;;10.60;77.30;;;;;;5073807;28;20494;-73
2022/04/08 11:20:26;;;;;;;7.13;4.03;;;10.60;76.20;;;;;;5073973;28;20060;-74
2022/04/08 11:22:55;;;;;;;3.92;1.42;;;10.40;77.20;;;;;;5074093;28;20076;-74
2022/04/08 11:25:23;;;;;;;1.73;0.93;;;10.30;78.70;;;;;;5073648;28;20048;-75
2022/04/08 11:28:01;;;;;;;0.65;0.52;;;9.80;81.90;;;;;;5073845;28;20437;-74
2022/04/08 11:30:29;;;;;;;2.38;0.70;;;9.60;90.00;;;;;;5073458;28;20478;-75
2022/04/08 11:32:56;;;;;;;1.77;1.20;;;10.10;96.00;;;;;;5073548;28;20074;-75
2022/04/08 11:35:28;;;;;;;1.55;0.93;;;10.10;93.50;;;;;;5073431;28;20498;-76
2022/04/08 11:37:55;;;;;;;3.35;0.88;;;10.10;96.30;;;;;;5073592;28;20048;-73
2022/04/08 11:40:22;;;;;;;1.35;0.70;;;10.30;94.00;;;;;;5073477;28;20086;-73
2022/04/08 11:42:49;;;;;;;4.38;0.63;;;10.00;93.90;;;;;;5073845;28;20080;-73
2022/04/08 11:45:17;;;;;;;3.45;0.70;;;9.90;95.10;;;;;;5073713;28;20087;-74
2022/04/08 11:47:47;;;;;;;5.68;1.25;;;9.70;94.90;;;;;;5073302;28;20502;-74
2022/04/08 11:50:14;;;;;;;3.40;0.57;;;9.80;96.70;;;;;;5073550;28;20175;-73
2022/04/08 11:52:52;;;;;;;1.63;0.73;;;9.80;95.70;;;;;;5073441;28;20098;-73
2022/04/08 11:55:24;;;;;;;1.55;0.77;;;9.60;95.40;;;;;;5073532;28;20090;-75
2022/04/08 11:57:50;;;;;;;;;;;10.60;94.60;;;;;;5074347;28;20071;-73
2022/04/08 12:00:18;;;;;;;2.50;0.88;;;12.80;89.10;;;;;;5073708;28;19960;-75
2022/04/08 12:02:47;;;;;;;0.90;0.70;;;13.60;82.10;;;;;;5073900;28;20045;-74
2022/04/08 12:05:19;;;;;;;5.65;3.05;;;15.10;76.40;;;;;;5074432;28;20048;-73
2022/04/08 12:07:48;;;;;;;4.75;2.72;;;15.30;70.10;;;;;;5074200;28;20052;-73
2022/04/08 12:10:14;;;;;;;6.40;1.13;;;15.70;70.20;;;;;;5075051;28;20083;-74
2022/04/08 12:12:45;;;;;;;1.27;0.60;;;14.70;65.80;;;;;;5076134;28;20064;-72
2022/04/08 12:15:12;;;;;;;1.30;0.80;;;13.00;67.90;;;;;;5075171;28;20048;-74
2022/04/08 12:17:39;;;;;;;1.02;1.00;;;11.90;73.00;;;;;;5073367;28;20056;-72
2022/04/08 12:20:11;;;;;;;1.02;0.70;;;11.10;74.50;;;;;;5076399;28;20117;-74
2022/04/08 12:22:39;;;;;;;1.35;0.70;;;10.60;77.70;;;;;;5077233;28;20091;-73
2022/04/08 12:25:08;;;;;;;2.58;0.85;;;10.20;78.40;;;;;;5077197;28;20060;-73
2022/04/08 12:27:35;;;;;;;1.23;0.70;;;9.70;79.10;;;;;;5077217;28;20080;-74
2022/04/08 12:30:02;;;;;;;1.05;0.70;;;9.30;82.60;;;;;;5076609;28;20383;-73
2022/04/08 12:32:37;;;;;;;1.40;0.93;;;9.30;86.60;;;;;;5077136;28;20121;-73
2022/04/08 12:35:06;;;;;;;4.95;1.25;;;9.50;90.00;;;;;;5077083;28;20410;-73
2022/04/08 12:37:32;;;;;;;0.70;0.70;;;9.80;91.70;;;;;;5077541;28;20072;-73
2022/04/08 12:39:59;;;;;;;1.67;0.95;;;10.10;89.70;;;;;;5076969;28;20076;-73
2022/04/08 12:42:26;;;;;;;2.08;1.08;;;10.30;90.40;;;;;;5076861;28;20071;-73
2022/04/08 12:44:53;;;;;;;4.05;1.40;;;10.30;90.00;;;;;;5077071;28;20553;-73
2022/04/08 12:47:20;;;;;;;1.45;1.13;;;10.20;89.50;;;;;;5076981;28;20058;-73
2022/04/08 12:49:46;;;;;;;1.52;0.90;;;9.90;90.00;;;;;;5076747;28;20077;-76
2022/04/08 12:52:13;;;;;;;0.73;0.73;;;9.80;90.60;;;;;;5076262;28;20131;-73
2022/04/08 12:54:39;;;;;;;2.03;1.15;;;9.80;91.00;;;;;;5076398;28;20140;-73
2022/04/08 12:57:06;;;;;;;2.55;1.10;;;9.70;92.50;;;;;;5076365;28;20080;-75
2022/04/08 12:59:34;;;;;;;1.38;1.10;;;9.60;94.30;;;;;;5076151;28;20493;-75